Latest Coastal Weather Observations for Cape Sorell

IDT60701

Issued at 4:32 pm EST Monday 20 May 2019 (issued every 10 minutes, with the page automatically refreshed every 10 minutes)

About coastal observations | Map of coastal stations | Coastal observations for TAS | Marine services | Other Formats
Station Details ID: 097000 Name: CAPE SORELL Lat: -42.20 Lon: 145.17 Height: 19.3 m
Data from the previous 72 hours. | See also: Recent months at Cape Sorell
Date/Time
EST
Wind Sea
Height
m
Swell Vis
km
Cloud Weather Temp
°C
Press
hPa
Rain since
9am
mm
Dir  Spd
kts
Gust
kts
Height
m
Period
s
Dir
20/04:30pm NNE 18 22 - - - - - - - 14.8 1013.1 0.6
20/04:00pm NNE 23 28 - - - - - - - 15.0 1012.9 0.6
20/03:30pm NNE 19 23 - - - - - - - 15.1 1013.2 0.6
20/03:00pm N 23 27 - - - - - - - 15.3 1013.4 0.6
20/02:40pm N 22 30 - - - - - - - 15.3 1013.4 0.6
20/02:30pm N 18 21 - - - - - - - 15.5 1013.4 0.6
20/02:00pm NNE 15 18 - - - - - - - 15.1 1013.1 0.6
20/01:30pm NE 17 20 - - - - - - - 14.7 1013.6 0.6
20/01:00pm NNE 24 29 - - - - - - - 14.4 1013.8 0.6
20/12:30pm NE 25 30 - - - - - - - 13.8 1014.2 0.6
20/12:00pm NE 24 29 - - - - - - Recent precip. 13.7 1015.0 0.2
20/11:30am NNE 25 30 - - - - - - - 14.3 1016.1 0.0
20/11:00am NNE 26 32 - - - - - - - 14.5 1016.4 0.0
20/10:30am NNE 23 27 - - - - - - - 14.5 1016.9 0.0
20/10:22am NNE 20 27 - - - - - - - 14.3 1017.1 0.0
20/10:00am NNE 12 16 - - - - - - - 14.7 1017.8 0.0
20/09:30am NE 8 10 - - - - - - - 14.5 1017.9 0.0
20/09:00am NNE 15 19 - - - - - - - 14.7 1018.3 0.2
20/08:30am NNE 17 20 - - - - - - - 15.0 1018.3 0.2
20/08:00am NNE 18 21 - - - - - - - 14.6 1018.2 0.2
20/07:30am NE 18 22 - - - - - - - 14.4 1018.1 0.2
20/07:00am NNE 15 19 - - - - - - - 14.3 1018.9 0.2
20/06:30am NNE 18 20 - - - - - - - 14.4 1019.1 0.2
20/06:00am NNE 13 17 - - - - - - - 14.2 1019.5 0.2
20/05:30am NNE 13 15 - - - - - - - 14.4 1019.8 0.2
20/05:00am NNE 12 15 - - - - - - - 14.4 1019.9 0.2
20/04:30am NNE 15 17 - - - - - - - 14.3 1020.0 0.2
20/04:00am NE 16 19 - - - - - - - 14.2 1020.2 0.2
20/03:30am NE 14 17 - - - - - - - 14.1 1020.6 0.2
20/03:00am NNE 16 20 - - - - - - - 14.1 1020.8 0.2
20/02:30am NE 10 14 - - - - - - - 13.8 1021.1 0.2
20/02:00am NE 7 10 - - - - - - - 12.8 1021.3 0.2
20/01:30am ENE 9 11 - - - - - - - 12.2 1021.3 0.2
20/01:00am ENE 10 11 - - - - - - - 11.8 1021.4 0.2
20/12:30am ENE 12 14 - - - - - - - 11.8 1021.6 0.2
20/12:00am ENE 12 14 - - - - - - - 11.6 1021.8 0.2
 
Date/Time
EST
Wind Sea
Height
m
Swell Vis
km
Cloud Weather Temp
°C
Press
hPa
Rain since
9am
mm
Dir  Spd
kts
Gust
kts
Height
m
Period
s
Dir
19/11:30pm ENE 12 14 - - - - - - - 12.0 1022.0 0.2
19/11:00pm NE 11 13 - - - - - - - 12.0 1022.3 0.2
19/10:30pm NE 11 15 - - - - - - - 12.6 1022.6 0.2
19/10:00pm NE 10 13 - - - - - - - 12.4 1023.0 0.2
19/09:30pm ENE 10 13 - - - - - - - 12.2 1023.3 0.2
19/09:00pm ENE 8 9 - - - - - - - 12.2 1023.6 0.2
19/08:30pm NE 8 12 - - - - - - - 13.2 1023.6 0.2
19/08:00pm NE 8 10 - - - - - - - 13.2 1023.9 0.2
19/07:30pm NE 9 11 - - - - - - - 13.5 1024.0 0.2
19/07:00pm NE 8 11 - - - - - - - 13.5 1024.2 0.2
19/06:30pm ENE 8 10 - - - - - - - 12.5 1024.1 0.2
19/06:00pm E 9 10 - - - - - - - 12.0 1023.8 0.2
19/05:30pm E 6 7 - - - - - - - 12.3 1023.8 0.2
19/05:00pm E 5 6 - - - - - - - 12.6 1023.9 0.2
19/04:30pm E 2 3 - - - - - - - 13.8 1024.6 0.2
19/04:00pm ESE 2 2 - - - - - - - 14.7 1024.7 0.0
19/03:30pm CALM 0 0 - - - - - - - 14.9 1024.9 0.0
19/03:00pm NNE 2 3 - - - - - - - 15.6 1025.1 0.0
19/02:30pm NNE 2 3 - - - - - - - 15.4 1025.4 0.0
19/02:00pm NNE 3 3 - - - - - - - 15.6 1025.8 0.0
19/01:30pm NE 5 6 - - - - - - - 15.4 1026.1 0.0
19/01:00pm NE 5 7 - - - - - - - 15.2 1026.4 0.0
19/12:30pm NE 5 7 - - - - - - - 15.0 1026.7 0.0
19/12:00pm NE 7 9 - - - - - - - 14.0 1027.2 0.0
19/11:30am ENE 7 9 - - - - - - - 12.7 1027.7 0.0
19/11:00am ENE 8 11 - - - - - - - 11.8 1028.1 0.0
19/10:30am ENE 7 9 - - - - - - - 9.9 1028.2 0.0
19/10:00am ENE 8 11 - - - - - - - 9.7 1028.4 0.0
19/09:30am ENE 8 11 - - - - - - - 9.6 1028.5 0.0
19/09:00am ENE 9 12 - - - - - - - 9.0 1028.7 0.4
19/08:30am ENE 9 11 - - - - - - - 8.3 1028.6 0.4
19/08:00am E 7 9 - - - - - - - 8.1 1028.7 0.4
19/07:30am E 9 11 - - - - - - - 7.9 1028.6 0.4
19/07:00am ENE 6 8 - - - - - - - 8.1 1028.7 0.4
19/06:30am E 6 9 - - - - - - - 8.4 1028.4 0.4
19/06:00am E 7 10 - - - - - - - 8.6 1028.3 0.4
19/05:30am E 9 12 - - - - - - - 8.6 1028.0 0.4
19/05:00am E 10 13 - - - - - - - 8.5 1027.9 0.4
19/04:30am E 9 12 - - - - - - - 8.8 1028.3 0.2
19/04:00am E 10 13 - - - - - - - 9.0 1028.2 0.2
19/03:30am E 11 14 - - - - - - - 8.7 1028.5 0.2
19/03:00am ESE 12 14 - - - - - - - 8.8 1028.6 0.2
19/02:30am E 9 11 - - - - - - - 8.8 1029.0 0.2
19/02:00am E 9 9 - - - - - - - 9.0 1029.4 0.2
19/01:30am E 9 9 - - - - - - - 9.5 1029.3 0.2
19/01:00am E 9 10 - - - - - - - 9.5 1029.5 0.2
19/12:30am ENE 7 9 - - - - - - - 9.7 1030.0 0.2
19/12:00am E 6 9 - - - - - - - 10.2 1030.0 0.2
 
Date/Time
EST
Wind Sea
Height
m
Swell Vis
km
Cloud Weather Temp
°C
Press
hPa
Rain since
9am
mm
Dir  Spd
kts
Gust
kts
Height
m
Period
s
Dir
18/11:30pm ESE 6 8 - - - - - - - 10.5 1030.0 0.2
18/11:00pm ENE 5 6 - - - - - - - 10.3 1030.2 0.2
18/10:30pm ENE 5 6 - - - - - - - 10.3 1030.1 0.2
18/10:00pm ENE 4 5 - - - - - - - 10.4 1030.1 0.2
18/09:30pm E 7 7 - - - - - - - 11.0 1030.0 0.2
18/09:00pm ESE 6 7 - - - - - - - 11.2 1029.9 0.2
18/08:30pm SSE 4 5 - - - - - - - 10.9 1029.8 0.2
18/08:00pm SSE 3 4 - - - - - - - 11.2 1029.7 0.2
18/07:30pm SSE 4 4 - - - - - - - 11.4 1029.6 0.2
18/07:00pm S 3 3 - - - - - - - 12.2 1029.6 0.2
18/06:30pm S 1 2 - - - - - - - 12.8 1029.5 0.2
18/06:00pm SSW 1 2 - - - - - - - 12.7 1029.2 0.2
18/05:30pm SW 3 3 - - - - - - - 12.9 1029.0 0.2
18/05:00pm SSW 2 3 - - - - - - - 13.5 1028.9 0.2
18/04:30pm SSW 4 5 - - - - - - - 14.4 1029.0 0.2
18/04:00pm SW 5 6 - - - - - - - 15.1 1029.1 0.2
18/03:30pm WSW 3 4 - - - - - - - 15.3 1029.0 0.2
18/03:00pm W 3 5 - - - - - - Recent precip. 16.4 1029.0 0.2
18/02:30pm WNW 4 5 - - - - - - - 16.6 1028.9 0.2
18/02:00pm NW 4 5 - - - - - - - 17.3 1029.1 0.0
18/01:30pm WNW 4 6 - - - - - - - 16.9 1029.2 0.0
18/01:00pm NNW 6 7 - - - - - - - 17.3 1029.2 0.0
18/12:30pm N 7 8 - - - - - - - 16.0 1029.2 0.0
18/12:00pm N 4 6 - - - - - - - 15.3 1029.7 0.0
18/11:30am NNE 5 6 - - - - - - - 16.3 1030.0 0.0
18/11:00am NNE 5 6 - - - - - - - 15.4 1030.0 0.0
18/10:30am NNE 4 5 - - - - - - - 14.7 1030.3 0.0
18/10:00am NNE 6 8 - - - - - - - 14.8 1030.0 0.0
18/09:30am NNE 7 9 - - - - - - - 14.0 1029.9 0.0
18/09:00am NNE 8 9 - - - - - - - 13.3 1029.9 0.0
18/08:30am NNE 6 7 - - - - - - - 12.9 1029.7 0.0
18/08:00am NNE 7 8 - - - - - - - 12.9 1029.5 0.0
18/07:30am NNE 7 9 - - - - - - - 12.9 1029.2 0.0
18/07:00am NNE 8 10 - - - - - - - 12.8 1028.9 0.0
18/06:30am NNE 8 10 - - - - - - - 12.7 1028.5 0.0
18/06:00am NNE 9 11 - - - - - - - 12.8 1028.2 0.0
18/05:30am NNE 8 10 - - - - - - - 12.8 1028.0 0.0
18/05:00am NNE 8 9 - - - - - - - 12.9 1028.0 0.0
18/04:30am NNE 8 10 - - - - - - - 12.9 1027.8 0.0
18/04:00am NNE 7 9 - - - - - - - 12.8 1027.7 0.0
18/03:30am NNE 8 10 - - - - - - - 12.7 1027.7 0.0
18/03:00am N 9 11 - - - - - - - 13.2 1027.5 0.0
18/02:30am N 10 12 - - - - - - - 13.6 1027.5 0.0
18/02:00am N 12 14 - - - - - - - 13.7 1027.2 0.0
18/01:30am N 13 15 - - - - - - - 13.6 1027.3 0.0
18/01:00am N 12 14 - - - - - - - 13.8 1027.3 0.0
18/12:30am NNW 7 10 - - - - - - - 13.8 1027.5 0.0
18/12:00am NNW 6 9 - - - - - - - 13.7 1027.7 0.0
 
Date/Time
EST
Wind Sea
Height
m
Swell Vis
km
Cloud Weather Temp
°C
Press
hPa
Rain since
9am
mm
Dir  Spd
kts
Gust
kts
Height
m
Period
s
Dir
17/11:30pm NNW 6 8 - - - - - - - 13.7 1027.8 0.0
17/11:00pm NNW 8 9 - - - - - - - 13.7 1027.6 0.0
17/10:30pm NNW 7 9 - - - - - - - 13.8 1027.6 0.0
17/10:00pm NW 5 7 - - - - - - - 13.6 1027.7 0.0
17/09:30pm NW 6 9 - - - - - - - 13.7 1027.4 0.0
17/09:00pm NW 6 9 - - - - - - - 13.8 1027.1 0.0
17/08:30pm NW 7 9 - - - - - - - 14.0 1026.8 0.0
17/08:00pm NW 9 11 - - - - - - - 14.3 1026.6 0.0
17/07:30pm NW 9 11 - - - - - - - 14.3 1026.4 0.0
17/07:00pm NW 7 10 - - - - - - - 14.3 1026.2 0.0
17/06:30pm NW 9 13 - - - - - - - 14.3 1026.0 0.0
17/06:00pm NW 9 11 - - - - - - - 14.6 1025.7 0.0
17/05:30pm NW 10 13 - - - - - - - 14.4 1025.3 0.0
17/05:00pm NNW 10 13 - - - - - - - 14.4 1025.0 0.0

Other formats

Comma delimited format used in spreadsheet applications
http://www.bom.gov.au/fwo/IDT60701/IDT60701.94974.axf

JavaScript Object Notation format (JSON) in row-major order
http://www.bom.gov.au/fwo/IDT60701/IDT60701.94974.json

Data quality

Most of these data are generated automatically and are frequently updated. Quality checks on data are not normally performed. It is possible for incorrect values to appear. Refer to information at About Latest Weather Observations and please check the disclaimer before using these data.